sensor_id;sensor_type;location;lat;lon;timestamp;pressure;altitude;pressure_sealevel;temperature;humidity
21109;BME280;10712;52.944;9.098;2023-05-27T00:00:07;102914.16;;;16.81;50.50
21109;BME280;10712;52.944;9.098;2023-05-27T00:02:34;102917.75;;;16.82;50.58
21109;BME280;10712;52.944;9.098;2023-05-27T00:05:00;102910.47;;;16.84;50.59
21109;BME280;10712;52.944;9.098;2023-05-27T00:07:26;102917.75;;;16.82;50.48
21109;BME280;10712;52.944;9.098;2023-05-27T00:09:53;102915.22;;;16.79;50.71
21109;BME280;10712;52.944;9.098;2023-05-27T00:12:20;102918.84;;;16.78;50.75
21109;BME280;10712;52.944;9.098;2023-05-27T00:14:46;102915.53;;;16.73;50.79
21109;BME280;10712;52.944;9.098;2023-05-27T00:17:12;102905.69;;;16.72;50.74
21109;BME280;10712;52.944;9.098;2023-05-27T00:19:42;102911.22;;;16.69;50.62
21109;BME280;10712;52.944;9.098;2023-05-27T00:22:11;102906.94;;;16.65;50.74
21109;BME280;10712;52.944;9.098;2023-05-27T00:24:37;102900.75;;;16.63;50.55
21109;BME280;10712;52.944;9.098;2023-05-27T00:27:09;102902.66;;;16.61;50.75
21109;BME280;10712;52.944;9.098;2023-05-27T00:29:35;102910.06;;;16.55;50.59
21109;BME280;10712;52.944;9.098;2023-05-27T00:32:02;102903.97;;;16.52;50.68
21109;BME280;10712;52.944;9.098;2023-05-27T00:34:31;102904.41;;;16.43;50.53
21109;BME280;10712;52.944;9.098;2023-05-27T00:36:57;102904.53;;;16.40;50.59
21109;BME280;10712;52.944;9.098;2023-05-27T00:39:23;102903.66;;;16.39;50.70
21109;BME280;10712;52.944;9.098;2023-05-27T00:41:50;102911.91;;;16.36;50.66
21109;BME280;10712;52.944;9.098;2023-05-27T00:44:17;102900.50;;;16.31;50.67
21109;BME280;10712;52.944;9.098;2023-05-27T00:46:47;102906.00;;;16.28;50.78
21109;BME280;10712;52.944;9.098;2023-05-27T00:49:13;102900.91;;;16.22;50.91
21109;BME280;10712;52.944;9.098;2023-05-27T00:51:39;102893.94;;;16.18;51.08
21109;BME280;10712;52.944;9.098;2023-05-27T00:54:08;102893.28;;;16.13;50.99
21109;BME280;10712;52.944;9.098;2023-05-27T00:56:36;102896.25;;;16.07;50.98
21109;BME280;10712;52.944;9.098;2023-05-27T00:59:02;102896.25;;;16.07;50.99
21109;BME280;10712;52.944;9.098;2023-05-27T01:01:28;102893.56;;;16.07;50.91
21109;BME280;10712;52.944;9.098;2023-05-27T01:03:56;102884.63;;;16.06;50.92
21109;BME280;10712;52.944;9.098;2023-05-27T01:06:48;102888.50;;;16.01;50.80
21109;BME280;10712;52.944;9.098;2023-05-27T01:09:31;102883.47;;;15.93;50.70
21109;BME280;10712;52.944;9.098;2023-05-27T01:15:12;102877.78;;;15.81;50.82
21109;BME280;10712;52.944;9.098;2023-05-27T01:17:38;102874.56;;;15.72;51.00
21109;BME280;10712;52.944;9.098;2023-05-27T01:20:10;102866.94;;;15.63;51.36
21109;BME280;10712;52.944;9.098;2023-05-27T01:22:38;102863.47;;;15.61;51.17
21109;BME280;10712;52.944;9.098;2023-05-27T01:25:08;102868.16;;;15.56;51.14
21109;BME280;10712;52.944;9.098;2023-05-27T01:27:34;102866.66;;;15.49;51.19
21109;BME280;10712;52.944;9.098;2023-05-27T01:30:01;102866.06;;;15.43;51.25
21109;BME280;10712;52.944;9.098;2023-05-27T01:32:53;102860.25;;;15.33;51.31
21109;BME280;10712;52.944;9.098;2023-05-27T01:35:50;102863.09;;;15.28;51.34
21109;BME280;10712;52.944;9.098;2023-05-27T01:38:19;102874.88;;;15.26;51.38
21109;BME280;10712;52.944;9.098;2023-05-27T01:40:48;102882.28;;;15.21;51.17
21109;BME280;10712;52.944;9.098;2023-05-27T01:43:15;102877.13;;;15.15;51.38
21109;BME280;10712;52.944;9.098;2023-05-27T01:45:42;102882.78;;;15.09;51.40
21109;BME280;10712;52.944;9.098;2023-05-27T01:48:08;102888.03;;;15.12;51.57
21109;BME280;10712;52.944;9.098;2023-05-27T01:50:38;102884.13;;;15.19;51.44
21109;BME280;10712;52.944;9.098;2023-05-27T01:53:06;102888.47;;;15.21;51.47
21109;BME280;10712;52.944;9.098;2023-05-27T01:55:31;102889.50;;;15.19;51.58
21109;BME280;10712;52.944;9.098;2023-05-27T01:57:58;102896.63;;;15.20;51.44
21109;BME280;10712;52.944;9.098;2023-05-27T02:00:24;102897.69;;;15.16;51.50
21109;BME280;10712;52.944;9.098;2023-05-27T02:02:51;102890.72;;;15.12;51.53
21109;BME280;10712;52.944;9.098;2023-05-27T02:05:17;102893.13;;;15.18;51.52
21109;BME280;10712;52.944;9.098;2023-05-27T02:07:44;102884.25;;;15.36;51.06
21109;BME280;10712;52.944;9.098;2023-05-27T02:10:10;102872.72;;;15.34;51.18
21109;BME280;10712;52.944;9.098;2023-05-27T02:12:36;102873.66;;;15.33;51.41
21109;BME280;10712;52.944;9.098;2023-05-27T02:15:04;102879.84;;;15.35;51.51
21109;BME280;10712;52.944;9.098;2023-05-27T02:17:30;102871.78;;;15.35;51.40
21109;BME280;10712;52.944;9.098;2023-05-27T02:19:56;102862.94;;;15.33;51.40
21109;BME280;10712;52.944;9.098;2023-05-27T02:22:22;102860.63;;;15.24;51.12
21109;BME280;10712;52.944;9.098;2023-05-27T02:24:48;102868.16;;;15.16;51.44
21109;BME280;10712;52.944;9.098;2023-05-27T02:27:14;102870.22;;;15.09;51.41
21109;BME280;10712;52.944;9.098;2023-05-27T02:29:40;102870.44;;;15.05;51.33
21109;BME280;10712;52.944;9.098;2023-05-27T02:32:06;102866.34;;;14.96;51.32
21109;BME280;10712;52.944;9.098;2023-05-27T02:34:32;102863.25;;;14.85;51.38
21109;BME280;10712;52.944;9.098;2023-05-27T02:37:04;102870.53;;;14.81;51.68
21109;BME280;10712;52.944;9.098;2023-05-27T02:39:30;102864.13;;;14.85;51.60
21109;BME280;10712;52.944;9.098;2023-05-27T02:41:56;102869.53;;;14.84;51.57
21109;BME280;10712;52.944;9.098;2023-05-27T02:44:23;102865.31;;;14.78;51.60
21109;BME280;10712;52.944;9.098;2023-05-27T02:46:48;102877.25;;;14.71;51.71
21109;BME280;10712;52.944;9.098;2023-05-27T02:49:14;102872.13;;;14.65;51.79
21109;BME280;10712;52.944;9.098;2023-05-27T02:51:40;102873.06;;;14.64;51.83
21109;BME280;10712;52.944;9.098;2023-05-27T02:54:06;102873.63;;;14.72;51.79
21109;BME280;10712;52.944;9.098;2023-05-27T02:56:32;102873.41;;;14.77;51.91
21109;BME280;10712;52.944;9.098;2023-05-27T02:58:58;102868.13;;;14.75;51.75
21109;BME280;10712;52.944;9.098;2023-05-27T03:01:24;102871.88;;;14.71;51.74
21109;BME280;10712;52.944;9.098;2023-05-27T03:03:50;102876.47;;;14.68;51.73
21109;BME280;10712;52.944;9.098;2023-05-27T03:06:16;102875.59;;;14.67;51.58
21109;BME280;10712;52.944;9.098;2023-05-27T03:08:41;102862.13;;;14.69;51.87
21109;BME280;10712;52.944;9.098;2023-05-27T03:11:09;102878.16;;;14.70;51.82
21109;BME280;10712;52.944;9.098;2023-05-27T03:13:35;102875.84;;;14.61;51.67
21109;BME280;10712;52.944;9.098;2023-05-27T03:16:00;102884.97;;;14.57;51.60
21109;BME280;10712;52.944;9.098;2023-05-27T03:18:26;102874.38;;;14.54;51.69
21109;BME280;10712;52.944;9.098;2023-05-27T03:20:52;102871.75;;;14.52;51.70
21109;BME280;10712;52.944;9.098;2023-05-27T03:23:18;102868.31;;;14.49;51.62
21109;BME280;10712;52.944;9.098;2023-05-27T03:25:45;102872.50;;;14.56;51.30
21109;BME280;10712;52.944;9.098;2023-05-27T03:28:11;102858.06;;;14.37;51.92
21109;BME280;10712;52.944;9.098;2023-05-27T03:30:36;102861.78;;;14.33;51.90
21109;BME280;10712;52.944;9.098;2023-05-27T03:33:03;102866.56;;;14.25;51.81
21109;BME280;10712;52.944;9.098;2023-05-27T03:35:34;102874.75;;;14.22;51.85
21109;BME280;10712;52.944;9.098;2023-05-27T03:38:00;102871.19;;;14.21;51.81
21109;BME280;10712;52.944;9.098;2023-05-27T03:40:26;102882.91;;;14.18;52.09
21109;BME280;10712;52.944;9.098;2023-05-27T03:42:53;102865.06;;;14.17;52.08
21109;BME280;10712;52.944;9.098;2023-05-27T03:45:22;102861.22;;;14.25;52.48
21109;BME280;10712;52.944;9.098;2023-05-27T03:47:48;102869.91;;;14.31;52.28
21109;BME280;10712;52.944;9.098;2023-05-27T03:50:15;102868.94;;;14.32;52.25
21109;BME280;10712;52.944;9.098;2023-05-27T03:52:41;102857.44;;;14.30;52.18
21109;BME280;10712;52.944;9.098;2023-05-27T03:55:07;102867.03;;;14.36;52.27
21109;BME280;10712;52.944;9.098;2023-05-27T03:57:33;102863.25;;;14.41;52.25
21109;BME280;10712;52.944;9.098;2023-05-27T03:59:59;102864.88;;;14.45;52.23
21109;BME280;10712;52.944;9.098;2023-05-27T04:02:25;102865.91;;;14.43;52.33
21109;BME280;10712;52.944;9.098;2023-05-27T04:04:52;102864.13;;;14.42;52.24
21109;BME280;10712;52.944;9.098;2023-05-27T04:07:19;102861.47;;;14.42;52.45
21109;BME280;10712;52.944;9.098;2023-05-27T04:09:45;102863.78;;;14.51;52.58
21109;BME280;10712;52.944;9.098;2023-05-27T04:12:11;102862.59;;;14.58;52.57
21109;BME280;10712;52.944;9.098;2023-05-27T04:14:37;102859.75;;;14.61;52.68
21109;BME280;10712;52.944;9.098;2023-05-27T04:17:03;102874.00;;;14.63;52.63
21109;BME280;10712;52.944;9.098;2023-05-27T04:19:28;102881.69;;;14.72;52.81
21109;BME280;10712;52.944;9.098;2023-05-27T04:21:54;102876.03;;;14.78;52.69
21109;BME280;10712;52.944;9.098;2023-05-27T04:24:20;102869.75;;;14.79;52.82
21109;BME280;10712;52.944;9.098;2023-05-27T04:26:46;102865.22;;;14.80;53.08
21109;BME280;10712;52.944;9.098;2023-05-27T04:29:14;102869.50;;;14.85;53.14
21109;BME280;10712;52.944;9.098;2023-05-27T04:31:42;102867.34;;;14.93;53.11
21109;BME280;10712;52.944;9.098;2023-05-27T04:34:13;102858.06;;;15.01;53.20
21109;BME280;10712;52.944;9.098;2023-05-27T04:36:40;102852.69;;;15.01;53.40
21109;BME280;10712;52.944;9.098;2023-05-27T04:39:09;102864.19;;;15.04;53.54
21109;BME280;10712;52.944;9.098;2023-05-27T04:41:39;102858.50;;;15.12;53.59
21109;BME280;10712;52.944;9.098;2023-05-27T04:44:13;102860.91;;;15.18;53.49
21109;BME280;10712;52.944;9.098;2023-05-27T04:46:43;102859.03;;;15.20;53.66
21109;BME280;10712;52.944;9.098;2023-05-27T04:49:10;102859.69;;;15.25;53.85
21109;BME280;10712;52.944;9.098;2023-05-27T04:51:37;102856.72;;;15.31;53.80
21109;BME280;10712;52.944;9.098;2023-05-27T04:54:03;102860.03;;;15.37;54.05
21109;BME280;10712;52.944;9.098;2023-05-27T04:56:32;102858.22;;;15.38;54.19
21109;BME280;10712;52.944;9.098;2023-05-27T04:58:58;102861.44;;;15.46;54.46
21109;BME280;10712;52.944;9.098;2023-05-27T05:01:30;102859.41;;;15.51;54.58
21109;BME280;10712;52.944;9.098;2023-05-27T05:04:11;102858.38;;;15.55;54.96
21109;BME280;10712;52.944;9.098;2023-05-27T05:06:42;102862.78;;;15.56;55.09
21109;BME280;10712;52.944;9.098;2023-05-27T05:09:09;102860.63;;;15.64;55.24
21109;BME280;10712;52.944;9.098;2023-05-27T05:11:35;102855.69;;;15.74;55.32
21109;BME280;10712;52.944;9.098;2023-05-27T05:14:02;102851.78;;;15.81;55.29
21109;BME280;10712;52.944;9.098;2023-05-27T05:16:28;102856.00;;;16.05;54.83
21109;BME280;10712;52.944;9.098;2023-05-27T05:18:54;102853.81;;;15.95;55.37
21109;BME280;10712;52.944;9.098;2023-05-27T05:21:21;102859.03;;;15.98;55.58
21109;BME280;10712;52.944;9.098;2023-05-27T05:23:47;102853.47;;;16.02;55.61
21109;BME280;10712;52.944;9.098;2023-05-27T05:26:13;102856.94;;;16.04;55.81
21109;BME280;10712;52.944;9.098;2023-05-27T05:28:42;102860.22;;;16.11;55.91
21109;BME280;10712;52.944;9.098;2023-05-27T05:31:10;102863.69;;;16.13;56.12
21109;BME280;10712;52.944;9.098;2023-05-27T05:33:36;102856.44;;;16.15;56.28
21109;BME280;10712;52.944;9.098;2023-05-27T05:36:03;102853.50;;;16.20;56.31
21109;BME280;10712;52.944;9.098;2023-05-27T05:38:39;102863.84;;;16.29;56.23
21109;BME280;10712;52.944;9.098;2023-05-27T05:41:05;102860.78;;;16.36;56.24
21109;BME280;10712;52.944;9.098;2023-05-27T05:43:34;102865.22;;;16.37;56.36
21109;BME280;10712;52.944;9.098;2023-05-27T05:46:00;102867.44;;;16.46;56.33
21109;BME280;10712;52.944;9.098;2023-05-27T05:48:27;102865.41;;;16.51;56.41
21109;BME280;10712;52.944;9.098;2023-05-27T05:50:54;102863.19;;;16.60;56.23
21109;BME280;10712;52.944;9.098;2023-05-27T05:53:19;102872.66;;;16.68;56.24
21109;BME280;10712;52.944;9.098;2023-05-27T05:55:46;102873.41;;;16.72;56.47
21109;BME280;10712;52.944;9.098;2023-05-27T05:58:13;102865.81;;;16.80;56.26
21109;BME280;10712;52.944;9.098;2023-05-27T06:00:40;102871.66;;;16.88;56.16
21109;BME280;10712;52.944;9.098;2023-05-27T06:03:26;102863.84;;;17.01;56.18
21109;BME280;10712;52.944;9.098;2023-05-27T06:05:55;102859.78;;;17.09;56.10
21109;BME280;10712;52.944;9.098;2023-05-27T06:08:21;102867.53;;;17.15;56.15
21109;BME280;10712;52.944;9.098;2023-05-27T06:10:56;102860.97;;;17.21;56.15
21109;BME280;10712;52.944;9.098;2023-05-27T06:13:22;102865.00;;;17.29;56.04
21109;BME280;10712;52.944;9.098;2023-05-27T06:15:50;102859.13;;;17.39;56.00
21109;BME280;10712;52.944;9.098;2023-05-27T06:18:16;102854.38;;;17.61;55.61
21109;BME280;10712;52.944;9.098;2023-05-27T06:20:42;102847.06;;;17.63;55.70
21109;BME280;10712;52.944;9.098;2023-05-27T06:23:08;102842.38;;;17.66;55.81
21109;BME280;10712;52.944;9.098;2023-05-27T06:25:53;102842.91;;;17.73;55.71
21109;BME280;10712;52.944;9.098;2023-05-27T06:28:20;102846.59;;;17.88;55.47
21109;BME280;10712;52.944;9.098;2023-05-27T06:30:46;102855.28;;;17.93;55.56
21109;BME280;10712;52.944;9.098;2023-05-27T06:33:13;102862.94;;;18.00;55.60
21109;BME280;10712;52.944;9.098;2023-05-27T06:35:38;102854.59;;;18.21;55.15
21109;BME280;10712;52.944;9.098;2023-05-27T06:38:05;102849.56;;;18.30;55.35
21109;BME280;10712;52.944;9.098;2023-05-27T06:40:31;102849.72;;;18.43;55.05
21109;BME280;10712;52.944;9.098;2023-05-27T06:42:57;102854.75;;;18.80;53.98
21109;BME280;10712;52.944;9.098;2023-05-27T06:45:36;102838.59;;;18.95;53.18
21109;BME280;10712;52.944;9.098;2023-05-27T06:48:20;102846.31;;;19.01;53.00
21109;BME280;10712;52.944;9.098;2023-05-27T06:50:47;102842.28;;;19.08;52.87
21109;BME280;10712;52.944;9.098;2023-05-27T06:53:13;102836.13;;;19.20;53.04
21109;BME280;10712;52.944;9.098;2023-05-27T06:55:56;102825.81;;;19.26;53.04
21109;BME280;10712;52.944;9.098;2023-05-27T06:58:58;102834.97;;;19.38;53.09
21109;BME280;10712;52.944;9.098;2023-05-27T07:01:25;102830.78;;;19.48;53.09
21109;BME280;10712;52.944;9.098;2023-05-27T07:04:02;102826.34;;;19.61;52.85
21109;BME280;10712;52.944;9.098;2023-05-27T07:06:39;102831.19;;;19.71;52.50
21109;BME280;10712;52.944;9.098;2023-05-27T07:09:05;102826.25;;;19.77;52.46
21109;BME280;10712;52.944;9.098;2023-05-27T07:11:33;102830.16;;;19.86;52.60
21109;BME280;10712;52.944;9.098;2023-05-27T07:14:03;102819.31;;;20.00;52.04
21109;BME280;10712;52.944;9.098;2023-05-27T07:16:32;102827.97;;;20.19;51.13
21109;BME280;10712;52.944;9.098;2023-05-27T07:18:58;102823.66;;;20.17;50.10
21109;BME280;10712;52.944;9.098;2023-05-27T07:21:26;102820.69;;;19.93;51.23
21109;BME280;10712;52.944;9.098;2023-05-27T07:23:52;102811.88;;;20.03;51.44
21109;BME280;10712;52.944;9.098;2023-05-27T07:26:31;102815.72;;;20.14;51.38
21109;BME280;10712;52.944;9.098;2023-05-27T07:28:59;102814.44;;;20.19;51.37
21109;BME280;10712;52.944;9.098;2023-05-27T07:31:46;102813.94;;;20.27;51.26
21109;BME280;10712;52.944;9.098;2023-05-27T07:34:14;102804.72;;;20.43;50.97
21109;BME280;10712;52.944;9.098;2023-05-27T07:36:40;102809.81;;;20.48;51.07
21109;BME280;10712;52.944;9.098;2023-05-27T07:39:07;102800.44;;;20.54;51.05
21109;BME280;10712;52.944;9.098;2023-05-27T07:41:33;102804.78;;;20.69;50.85
21109;BME280;10712;52.944;9.098;2023-05-27T07:44:01;102796.81;;;20.80;50.19
21109;BME280;10712;52.944;9.098;2023-05-27T07:46:26;102798.56;;;20.81;50.41
21109;BME280;10712;52.944;9.098;2023-05-27T07:48:52;102801.59;;;20.89;50.30
21109;BME280;10712;52.944;9.098;2023-05-27T07:51:18;102793.59;;;21.00;49.68
21109;BME280;10712;52.944;9.098;2023-05-27T07:53:44;102801.63;;;21.02;49.82
21109;BME280;10712;52.944;9.098;2023-05-27T07:56:12;102793.94;;;21.08;49.46
21109;BME280;10712;52.944;9.098;2023-05-27T07:58:38;102803.16;;;21.18;49.34
21109;BME280;10712;52.944;9.098;2023-05-27T08:01:11;102795.38;;;21.27;49.14
21109;BME280;10712;52.944;9.098;2023-05-27T08:03:42;102793.41;;;21.41;48.96
21109;BME280;10712;52.944;9.098;2023-05-27T08:06:26;102789.91;;;21.52;49.10
21109;BME280;10712;52.944;9.098;2023-05-27T08:09:05;102789.47;;;21.71;48.52
21109;BME280;10712;52.944;9.098;2023-05-27T08:11:39;102790.31;;;21.84;47.98
21109;BME280;10712;52.944;9.098;2023-05-27T08:14:31;102786.38;;;21.88;47.10
21109;BME280;10712;52.944;9.098;2023-05-27T08:17:19;102771.91;;;22.00;47.25
21109;BME280;10712;52.944;9.098;2023-05-27T08:19:58;102774.38;;;22.16;47.35
21109;BME280;10712;52.944;9.098;2023-05-27T08:22:35;102776.22;;;22.39;45.62
21109;BME280;10712;52.944;9.098;2023-05-27T08:25:20;102769.63;;;22.30;45.14
21109;BME280;10712;52.944;9.098;2023-05-27T08:28:04;102764.88;;;22.45;45.62
21109;BME280;10712;52.944;9.098;2023-05-27T08:30:53;102764.13;;;22.43;45.24
21109;BME280;10712;52.944;9.098;2023-05-27T08:33:26;102757.00;;;22.53;44.81
21109;BME280;10712;52.944;9.098;2023-05-27T08:35:53;102755.09;;;22.66;45.34
21109;BME280;10712;52.944;9.098;2023-05-27T08:38:18;102761.81;;;22.85;45.14
21109;BME280;10712;52.944;9.098;2023-05-27T08:40:45;102759.00;;;22.97;44.64
21109;BME280;10712;52.944;9.098;2023-05-27T08:43:11;102754.09;;;23.02;43.86
21109;BME280;10712;52.944;9.098;2023-05-27T08:45:41;102756.19;;;23.10;43.33
21109;BME280;10712;52.944;9.098;2023-05-27T08:48:09;102749.63;;;23.24;43.03
21109;BME280;10712;52.944;9.098;2023-05-27T08:50:37;102747.06;;;23.33;42.56
21109;BME280;10712;52.944;9.098;2023-05-27T08:53:05;102758.66;;;23.46;42.25
21109;BME280;10712;52.944;9.098;2023-05-27T08:55:33;102749.06;;;23.53;41.95
21109;BME280;10712;52.944;9.098;2023-05-27T08:58:01;102747.31;;;23.64;41.98
21109;BME280;10712;52.944;9.098;2023-05-27T09:00:32;102746.56;;;23.73;41.85
21109;BME280;10712;52.944;9.098;2023-05-27T09:03:12;102737.63;;;23.82;41.80
21109;BME280;10712;52.944;9.098;2023-05-27T09:05:39;102740.94;;;23.97;40.42
21109;BME280;10712;52.944;9.098;2023-05-27T09:08:04;102732.91;;;23.95;40.19
21109;BME280;10712;52.944;9.098;2023-05-27T09:10:38;102726.69;;;24.04;40.13
21109;BME280;10712;52.944;9.098;2023-05-27T09:13:04;102719.22;;;24.17;40.26
21109;BME280;10712;52.944;9.098;2023-05-27T09:15:33;102722.19;;;24.14;40.53
21109;BME280;10712;52.944;9.098;2023-05-27T09:18:02;102726.75;;;24.14;40.25
21109;BME280;10712;52.944;9.098;2023-05-27T09:20:29;102722.19;;;24.14;39.88
21109;BME280;10712;52.944;9.098;2023-05-27T09:23:03;102719.00;;;24.09;40.13
21109;BME280;10712;52.944;9.098;2023-05-27T09:25:29;102710.53;;;24.23;40.15
21109;BME280;10712;52.944;9.098;2023-05-27T09:27:55;102711.75;;;24.30;39.56
21109;BME280;10712;52.944;9.098;2023-05-27T09:30:24;102718.94;;;24.31;39.34
21109;BME280;10712;52.944;9.098;2023-05-27T09:32:49;102724.31;;;24.43;39.76
21109;BME280;10712;52.944;9.098;2023-05-27T09:35:17;102720.03;;;24.61;38.95
21109;BME280;10712;52.944;9.098;2023-05-27T09:37:44;102718.19;;;24.61;39.26
21109;BME280;10712;52.944;9.098;2023-05-27T09:40:13;102720.03;;;24.61;39.31
21109;BME280;10712;52.944;9.098;2023-05-27T09:45:19;102707.31;;;24.50;39.28
21109;BME280;10712;52.944;9.098;2023-05-27T09:47:52;102696.19;;;24.42;39.08
21109;BME280;10712;52.944;9.098;2023-05-27T09:50:20;102692.94;;;24.48;39.19
21109;BME280;10712;52.944;9.098;2023-05-27T09:52:48;102696.94;;;24.65;39.71
21109;BME280;10712;52.944;9.098;2023-05-27T09:55:16;102699.13;;;24.71;38.99
21109;BME280;10712;52.944;9.098;2023-05-27T09:57:44;102690.22;;;24.69;38.81
21109;BME280;10712;52.944;9.098;2023-05-27T10:00:12;102689.75;;;24.64;38.57
21109;BME280;10712;52.944;9.098;2023-05-27T10:02:41;102671.53;;;24.64;38.79
21109;BME280;10712;52.944;9.098;2023-05-27T10:05:08;102677.06;;;24.74;38.39
21109;BME280;10712;52.944;9.098;2023-05-27T10:07:39;102679.50;;;24.77;38.12
21109;BME280;10712;52.944;9.098;2023-05-27T10:10:09;102679.69;;;24.85;38.48
21109;BME280;10712;52.944;9.098;2023-05-27T10:12:39;102678.94;;;24.94;38.36
21109;BME280;10712;52.944;9.098;2023-05-27T10:15:07;102674.38;;;25.04;37.82
21109;BME280;10712;52.944;9.098;2023-05-27T10:17:54;102664.88;;;24.99;37.94
21109;BME280;10712;52.944;9.098;2023-05-27T10:20:31;102670.66;;;25.05;38.47
21109;BME280;10712;52.944;9.098;2023-05-27T10:23:18;102662.91;;;25.10;38.75
21109;BME280;10712;52.944;9.098;2023-05-27T10:26:00;102658.31;;;25.11;38.30
21109;BME280;10712;52.944;9.098;2023-05-27T10:28:28;102667.25;;;25.13;38.74
21109;BME280;10712;52.944;9.098;2023-05-27T10:33:34;102658.97;;;25.34;38.33
21109;BME280;10712;52.944;9.098;2023-05-27T10:36:10;102654.44;;;25.44;38.04
21109;BME280;10712;52.944;9.098;2023-05-27T10:38:37;102651.34;;;25.58;36.54
21109;BME280;10712;52.944;9.098;2023-05-27T10:41:06;102643.38;;;25.55;36.36
21109;BME280;10712;52.944;9.098;2023-05-27T10:43:33;102646.69;;;25.49;36.58
21109;BME280;10712;52.944;9.098;2023-05-27T10:46:11;102633.47;;;25.54;36.68
21109;BME280;10712;52.944;9.098;2023-05-27T10:48:38;102632.06;;;25.60;38.17
21109;BME280;10712;52.944;9.098;2023-05-27T10:51:06;102634.25;;;25.75;38.21
21109;BME280;10712;52.944;9.098;2023-05-27T10:53:36;102624.19;;;25.95;36.37
21109;BME280;10712;52.944;9.098;2023-05-27T10:56:02;102632.66;;;26.11;35.94
21109;BME280;10712;52.944;9.098;2023-05-27T10:58:28;102618.56;;;26.16;35.49
21109;BME280;10712;52.944;9.098;2023-05-27T11:00:55;102618.59;;;26.25;35.43
21109;BME280;10712;52.944;9.098;2023-05-27T11:03:26;102625.94;;;26.25;36.17
21109;BME280;10712;52.944;9.098;2023-05-27T11:08:26;102608.75;;;26.42;34.64
21109;BME280;10712;52.944;9.098;2023-05-27T11:11:01;102605.34;;;26.40;35.04
21109;BME280;10712;52.944;9.098;2023-05-27T11:13:42;102607.75;;;26.43;35.39
21109;BME280;10712;52.944;9.098;2023-05-27T11:16:09;102594.34;;;26.50;35.15
21109;BME280;10712;52.944;9.098;2023-05-27T11:21:01;102589.94;;;26.39;35.65
21109;BME280;10712;52.944;9.098;2023-05-27T11:23:44;102585.47;;;26.38;36.76
21109;BME280;10712;52.944;9.098;2023-05-27T11:28:56;102589.13;;;26.66;34.20
21109;BME280;10712;52.944;9.098;2023-05-27T11:31:30;102586.81;;;26.71;34.28
21109;BME280;10712;52.944;9.098;2023-05-27T11:33:57;102583.53;;;26.67;35.16
21109;BME280;10712;52.944;9.098;2023-05-27T11:36:27;102576.22;;;26.49;35.05
21109;BME280;10712;52.944;9.098;2023-05-27T11:39:00;102576.19;;;26.58;35.46
21109;BME280;10712;52.944;9.098;2023-05-27T11:41:29;102578.16;;;26.76;35.63
21109;BME280;10712;52.944;9.098;2023-05-27T11:44:04;102572.22;;;26.80;35.83
21109;BME280;10712;52.944;9.098;2023-05-27T11:46:44;102567.16;;;26.95;35.50
21109;BME280;10712;52.944;9.098;2023-05-27T11:49:13;102566.50;;;27.11;35.45
21109;BME280;10712;52.944;9.098;2023-05-27T11:51:42;102560.19;;;27.28;34.39
21109;BME280;10712;52.944;9.098;2023-05-27T11:54:22;102555.19;;;27.23;34.47
21109;BME280;10712;52.944;9.098;2023-05-27T11:56:49;102554.56;;;27.29;34.21
21109;BME280;10712;52.944;9.098;2023-05-27T11:59:16;102550.81;;;27.30;33.75
21109;BME280;10712;52.944;9.098;2023-05-27T12:01:43;102547.06;;;27.31;33.97
21109;BME280;10712;52.944;9.098;2023-05-27T12:04:09;102536.25;;;27.48;33.84
21109;BME280;10712;52.944;9.098;2023-05-27T12:06:36;102534.22;;;27.50;33.61
21109;BME280;10712;52.944;9.098;2023-05-27T12:09:09;102523.53;;;27.56;33.53
21109;BME280;10712;52.944;9.098;2023-05-27T12:11:37;102520.66;;;27.58;33.97
21109;BME280;10712;52.944;9.098;2023-05-27T12:14:04;102524.47;;;27.65;33.80
21109;BME280;10712;52.944;9.098;2023-05-27T12:16:31;102523.06;;;27.78;33.85
21109;BME280;10712;52.944;9.098;2023-05-27T12:18:58;102507.47;;;27.79;33.80
21109;BME280;10712;52.944;9.098;2023-05-27T12:21:24;102501.03;;;27.88;33.07
21109;BME280;10712;52.944;9.098;2023-05-27T12:23:50;102506.50;;;27.88;32.88
21109;BME280;10712;52.944;9.098;2023-05-27T12:26:17;102492.44;;;27.83;32.84
21109;BME280;10712;52.944;9.098;2023-05-27T12:28:43;102495.88;;;27.85;32.42
21109;BME280;10712;52.944;9.098;2023-05-27T12:31:09;102488.25;;;27.97;32.00
21109;BME280;10712;52.944;9.098;2023-05-27T12:33:35;102487.38;;;27.96;32.86
21109;BME280;10712;52.944;9.098;2023-05-27T12:36:02;102477.84;;;28.00;33.62
21109;BME280;10712;52.944;9.098;2023-05-27T12:38:28;102477.00;;;28.08;33.42
21109;BME280;10712;52.944;9.098;2023-05-27T12:40:54;102476.53;;;28.12;32.62
21109;BME280;10712;52.944;9.098;2023-05-27T12:43:23;102474.81;;;28.11;32.83
21109;BME280;10712;52.944;9.098;2023-05-27T12:45:50;102471.06;;;28.12;32.60
21109;BME280;10712;52.944;9.098;2023-05-27T12:48:17;102468.72;;;28.17;32.50
21109;BME280;10712;52.944;9.098;2023-05-27T12:50:44;102465.16;;;28.25;30.38
21109;BME280;10712;52.944;9.098;2023-05-27T12:53:10;102461.56;;;28.25;29.45
21109;BME280;10712;52.944;9.098;2023-05-27T12:55:36;102453.50;;;28.23;30.15
21109;BME280;10712;52.944;9.098;2023-05-27T12:58:02;102454.03;;;28.27;29.14
21109;BME280;10712;52.944;9.098;2023-05-27T13:00:29;102452.28;;;28.17;30.15
21109;BME280;10712;52.944;9.098;2023-05-27T13:02:57;102448.06;;;28.05;31.00
21109;BME280;10712;52.944;9.098;2023-05-27T13:05:23;102439.78;;;27.97;31.74
21109;BME280;10712;52.944;9.098;2023-05-27T13:08:01;102441.25;;;27.83;31.41
21109;BME280;10712;52.944;9.098;2023-05-27T13:10:27;102435.13;;;27.90;32.44
21109;BME280;10712;52.944;9.098;2023-05-27T13:12:54;102429.47;;;27.91;32.29
21109;BME280;10712;52.944;9.098;2023-05-27T13:15:21;102421.63;;;27.96;32.67